createdAt,value
2023-05-03T00:02:25.289Z,95.38
2023-05-03T00:04:53.576Z,91.92
2023-05-03T00:07:22.073Z,92.48
2023-05-03T00:09:50.051Z,98.99
2023-05-03T00:12:17.627Z,100.00
2023-05-03T00:14:45.684Z,100.00
2023-05-03T00:17:12.945Z,100.00
2023-05-03T00:19:40.625Z,93.43
2023-05-03T00:22:09.055Z,93.64
2023-05-03T00:24:36.353Z,93.54
2023-05-03T00:27:04.303Z,91.34
2023-05-03T00:29:31.616Z,89.10
2023-05-03T00:32:00.260Z,87.92
2023-05-03T00:34:27.928Z,91.75
2023-05-03T00:36:55.236Z,92.45
2023-05-03T00:39:22.509Z,96.16
2023-05-03T00:41:50.199Z,92.48
2023-05-03T00:44:17.383Z,90.53
2023-05-03T00:46:44.588Z,89.89
2023-05-03T00:49:12.227Z,90.38
2023-05-03T00:51:39.619Z,95.90
2023-05-03T00:54:06.803Z,98.79
2023-05-03T00:56:47.793Z,99.79
2023-05-03T00:59:18.856Z,100.00
2023-05-03T01:01:50.058Z,100.00
2023-05-03T01:04:17.859Z,100.00
2023-05-03T01:06:48.018Z,100.00
2023-05-03T01:09:17.516Z,100.00
2023-05-03T01:11:53.940Z,100.00
2023-05-03T01:14:29.051Z,98.95
2023-05-03T01:16:57.233Z,97.49
2023-05-03T01:19:35.226Z,100.00
2023-05-03T01:22:22.956Z,100.00
2023-05-03T01:24:51.597Z,100.00
2023-05-03T01:27:19.379Z,100.00
2023-05-03T01:29:46.761Z,100.00
2023-05-03T01:32:15.889Z,96.86
2023-05-03T01:34:43.585Z,94.96
2023-05-03T01:37:11.014Z,95.64
2023-05-03T01:39:42.461Z,90.94
2023-05-03T01:42:09.639Z,93.48
2023-05-03T01:44:36.874Z,97.36
2023-05-03T01:47:04.360Z,100.00
2023-05-03T01:49:33.223Z,100.00
2023-05-03T01:52:00.591Z,100.00
2023-05-03T01:54:28.115Z,95.58
2023-05-03T01:56:55.396Z,97.41
2023-05-03T01:59:22.618Z,95.77
2023-05-03T02:01:50.076Z,97.82
2023-05-03T02:04:17.629Z,98.20
2023-05-03T02:06:44.988Z,95.51
2023-05-03T02:09:12.431Z,96.27
2023-05-03T02:11:41.124Z,96.98
2023-05-03T02:14:08.294Z,95.72
2023-05-03T02:16:35.969Z,97.72
2023-05-03T02:19:03.230Z,96.73
2023-05-03T02:21:31.615Z,98.72
2023-05-03T02:23:59.877Z,98.43
2023-05-03T02:26:27.354Z,95.24
2023-05-03T02:28:56.013Z,97.01
2023-05-03T02:31:24.137Z,94.52
2023-05-03T02:33:51.484Z,96.66
2023-05-03T02:36:18.678Z,97.16
2023-05-03T02:38:46.961Z,98.14
2023-05-03T02:41:14.373Z,95.19
2023-05-03T02:43:41.581Z,95.09
2023-05-03T02:46:09.058Z,96.38
2023-05-03T02:48:36.276Z,98.28
2023-05-03T02:51:03.564Z,93.40
2023-05-03T02:53:31.082Z,97.72
2023-05-03T02:55:58.949Z,93.73
2023-05-03T02:58:26.188Z,91.14
2023-05-03T03:00:54.108Z,97.59
2023-05-03T03:03:21.790Z,99.54
2023-05-03T03:05:50.237Z,96.22
2023-05-03T03:08:18.944Z,95.60
2023-05-03T03:10:46.181Z,98.01
2023-05-03T03:13:13.412Z,93.58
2023-05-03T03:15:41.269Z,96.65
2023-05-03T03:18:08.499Z,96.16
2023-05-03T03:20:36.377Z,95.06
2023-05-03T03:23:03.837Z,96.77
2023-05-03T03:25:32.249Z,95.02
2023-05-03T03:27:59.460Z,95.06
2023-05-03T03:30:27.422Z,95.06
2023-05-03T03:32:55.726Z,94.79
2023-05-03T03:35:23.781Z,95.15
2023-05-03T03:37:51.590Z,93.57
2023-05-03T03:40:19.219Z,93.21
2023-05-03T03:42:47.088Z,90.00
2023-05-03T03:45:14.668Z,90.90
2023-05-03T03:47:42.191Z,89.33
2023-05-03T03:50:09.760Z,85.89
2023-05-03T03:52:37.367Z,89.49
2023-05-03T03:55:05.107Z,92.35
2023-05-03T03:57:33.339Z,89.10
2023-05-03T04:00:01.398Z,91.30
2023-05-03T04:02:39.677Z,95.42
2023-05-03T04:05:09.256Z,92.15
2023-05-03T04:07:36.726Z,94.10
2023-05-03T04:10:04.392Z,97.11
2023-05-03T04:12:32.209Z,100.00
2023-05-03T04:14:59.518Z,100.00
2023-05-03T04:17:26.959Z,100.00
2023-05-03T04:19:54.466Z,97.13
2023-05-03T04:22:22.140Z,96.23
2023-05-03T04:24:50.597Z,99.60
2023-05-03T04:27:18.832Z,97.67
2023-05-03T04:29:46.183Z,100.00
2023-05-03T04:32:14.488Z,96.49
2023-05-03T04:34:44.316Z,90.96
2023-05-03T04:37:11.557Z,89.54
2023-05-03T04:39:40.032Z,88.65
2023-05-03T04:42:08.828Z,93.24
2023-05-03T04:44:36.547Z,89.41
2023-05-03T04:47:03.869Z,83.25
2023-05-03T04:49:32.999Z,82.63
2023-05-03T04:52:00.606Z,83.67
2023-05-03T04:54:28.350Z,84.85
2023-05-03T04:56:57.552Z,84.20
2023-05-03T04:59:25.209Z,87.52
2023-05-03T05:01:52.728Z,84.81
2023-05-03T05:04:21.023Z,85.44
2023-05-03T05:06:50.767Z,84.96
2023-05-03T05:09:22.027Z,86.73
2023-05-03T05:11:50.071Z,85.99
2023-05-03T05:14:18.117Z,85.76
2023-05-03T05:16:45.536Z,86.15
2023-05-03T05:19:13.560Z,86.66
2023-05-03T05:21:41.127Z,87.43
2023-05-03T05:24:08.987Z,87.06
2023-05-03T05:26:37.628Z,88.69
2023-05-03T05:29:04.944Z,88.77
2023-05-03T05:31:32.764Z,89.46
2023-05-03T05:34:00.554Z,90.73
2023-05-03T05:36:27.893Z,90.04
2023-05-03T05:38:55.239Z,89.19
2023-05-03T05:41:22.701Z,94.63
2023-05-03T05:43:50.416Z,92.08
2023-05-03T05:46:18.024Z,91.85
2023-05-03T05:48:45.769Z,90.32
2023-05-03T05:51:13.152Z,90.00
2023-05-03T05:53:40.723Z,89.67
2023-05-03T05:56:08.969Z,89.53
2023-05-03T05:58:37.582Z,89.01
2023-05-03T06:01:05.574Z,88.04
2023-05-03T06:03:34.256Z,91.91
2023-05-03T06:06:01.841Z,94.78
2023-05-03T06:08:29.102Z,100.00
2023-05-03T06:10:56.691Z,95.16
2023-05-03T06:13:25.038Z,96.44
2023-05-03T06:15:52.450Z,88.86
2023-05-03T06:18:20.025Z,88.40
2023-05-03T06:20:51.202Z,94.46
2023-05-03T06:23:18.811Z,98.03
2023-05-03T06:25:47.511Z,92.30
2023-05-03T06:28:15.961Z,90.77
2023-05-03T06:30:48.146Z,89.28
2023-05-03T06:33:16.384Z,87.50
2023-05-03T06:35:43.891Z,86.22
2023-05-03T06:38:12.121Z,84.14
2023-05-03T06:40:41.388Z,92.47
2023-05-03T06:43:08.715Z,90.63
2023-05-03T06:45:36.305Z,91.99
2023-05-03T06:48:04.027Z,89.18
2023-05-03T06:50:31.316Z,87.77
2023-05-03T06:52:58.679Z,84.15
2023-05-03T06:55:29.564Z,85.49
2023-05-03T06:57:58.080Z,83.90
2023-05-03T07:00:26.102Z,81.71
2023-05-03T07:02:53.728Z,80.27
2023-05-03T07:05:21.240Z,89.13
2023-05-03T07:07:55.736Z,84.43
2023-05-03T07:10:23.246Z,89.22
2023-05-03T07:12:50.483Z,92.15
2023-05-03T07:15:17.668Z,94.09
2023-05-03T07:17:45.070Z,90.97
2023-05-03T07:20:12.406Z,88.07
2023-05-03T07:22:39.549Z,92.79
2023-05-03T07:25:08.218Z,93.32
2023-05-03T07:27:35.706Z,84.03
2023-05-03T07:30:04.898Z,87.93
2023-05-03T07:32:33.049Z,90.17
2023-05-03T07:35:00.317Z,81.40
2023-05-03T07:37:28.975Z,78.82
2023-05-03T07:39:57.435Z,77.18
2023-05-03T07:42:24.606Z,84.47
2023-05-03T07:44:52.358Z,82.97
2023-05-03T07:47:19.868Z,84.31
2023-05-03T07:49:47.927Z,82.74
2023-05-03T07:52:15.177Z,81.95
2023-05-03T07:54:43.785Z,75.25
2023-05-03T07:57:11.030Z,79.67
2023-05-03T07:59:39.039Z,75.53
2023-05-03T08:02:07.437Z,74.62
2023-05-03T08:04:35.270Z,80.18
2023-05-03T08:07:02.771Z,78.70
2023-05-03T08:09:29.976Z,76.69
2023-05-03T08:11:57.805Z,78.78
2023-05-03T08:14:25.044Z,74.21
2023-05-03T08:16:52.431Z,68.66
2023-05-03T08:19:20.112Z,69.22
2023-05-03T08:21:47.802Z,74.33
2023-05-03T08:24:16.143Z,71.57
2023-05-03T08:26:45.788Z,69.52
2023-05-03T08:29:13.470Z,70.16
2023-05-03T08:31:41.338Z,72.83
2023-05-03T08:34:10.813Z,70.28
2023-05-03T08:36:41.628Z,74.99
2023-05-03T08:39:10.340Z,70.51
2023-05-03T08:41:37.529Z,71.84
2023-05-03T08:44:05.660Z,70.47
2023-05-03T08:46:37.146Z,67.75
2023-05-03T08:49:04.639Z,65.03
2023-05-03T08:51:32.128Z,70.85
2023-05-03T08:53:59.629Z,68.98
2023-05-03T08:56:33.713Z,68.78
2023-05-03T08:59:07.595Z,65.82
2023-05-03T09:01:38.575Z,65.70
2023-05-03T09:04:06.654Z,63.13
2023-05-03T09:06:34.451Z,67.43
2023-05-03T09:09:02.027Z,67.53
2023-05-03T09:11:31.159Z,67.91
2023-05-03T09:14:17.413Z,70.09
2023-05-03T09:16:45.672Z,67.50
2023-05-03T09:19:13.481Z,73.66
2023-05-03T09:21:44.349Z,70.63
2023-05-03T09:24:15.466Z,67.96
2023-05-03T09:26:43.125Z,68.67
2023-05-03T09:29:10.583Z,69.17
2023-05-03T09:31:38.321Z,68.85
2023-05-03T09:34:21.123Z,71.13
2023-05-03T09:36:48.611Z,73.45
2023-05-03T09:39:16.330Z,69.93
2023-05-03T09:41:43.563Z,67.93
2023-05-03T09:44:11.017Z,70.18
2023-05-03T09:46:38.295Z,69.05
2023-05-03T09:49:06.876Z,70.43
2023-05-03T09:51:34.318Z,68.60
2023-05-03T09:54:01.572Z,71.04
2023-05-03T09:56:28.841Z,69.20
2023-05-03T09:58:56.388Z,68.64
2023-05-03T10:01:24.307Z,68.85
2023-05-03T10:03:52.019Z,68.99
2023-05-03T10:06:29.414Z,70.58
2023-05-03T10:09:00.915Z,69.70
2023-05-03T10:11:29.276Z,68.84
2023-05-03T10:13:57.057Z,69.83
2023-05-03T10:16:26.700Z,68.24
2023-05-03T10:18:54.801Z,68.36
2023-05-03T10:21:25.110Z,65.32
2023-05-03T10:24:13.025Z,68.18
2023-05-03T10:26:41.763Z,69.38
2023-05-03T10:29:27.909Z,65.70
2023-05-03T10:31:55.737Z,68.23
2023-05-03T10:34:24.138Z,67.75
2023-05-03T10:36:53.318Z,66.07
2023-05-03T10:39:21.076Z,66.74
2023-05-03T10:42:04.120Z,69.11
2023-05-03T10:44:52.553Z,67.29
2023-05-03T10:47:22.716Z,65.21
2023-05-03T10:50:09.171Z,66.49
2023-05-03T10:52:36.348Z,65.87
2023-05-03T10:55:10.099Z,67.88
2023-05-03T10:57:39.557Z,64.99
2023-05-03T11:00:12.412Z,63.56
2023-05-03T11:02:59.905Z,63.28
2023-05-03T11:05:28.131Z,64.77
2023-05-03T11:08:11.572Z,64.63
2023-05-03T11:10:39.223Z,64.73
2023-05-03T11:13:06.888Z,62.80
2023-05-03T11:15:34.192Z,60.71
2023-05-03T11:18:02.084Z,61.86
2023-05-03T11:20:29.459Z,62.34
2023-05-03T11:22:56.674Z,63.14
2023-05-03T11:25:24.157Z,64.26
2023-05-03T11:27:51.385Z,62.12
2023-05-03T11:30:18.622Z,66.76
2023-05-03T11:32:46.199Z,69.03
2023-05-03T11:35:13.953Z,67.23
2023-05-03T11:37:42.182Z,67.04
2023-05-03T11:40:17.079Z,69.83
2023-05-03T11:42:54.181Z,71.09
2023-05-03T11:45:25.636Z,72.58
2023-05-03T11:47:53.161Z,67.49
2023-05-03T11:50:26.596Z,70.67
2023-05-03T11:52:54.023Z,68.80
2023-05-03T11:55:21.601Z,71.55
2023-05-03T11:57:48.780Z,70.46
2023-05-03T12:00:20.330Z,71.40
2023-05-03T12:02:48.351Z,71.58
2023-05-03T12:08:20.910Z,72.02
2023-05-03T12:10:50.334Z,72.81
2023-05-03T12:13:30.465Z,73.10
2023-05-03T12:16:10.701Z,76.16
2023-05-03T12:18:55.946Z,78.23
2023-05-03T12:23:56.551Z,76.21
2023-05-03T12:26:26.607Z,80.85
2023-05-03T12:28:56.601Z,76.43
2023-05-03T12:31:24.838Z,77.53
2023-05-03T12:36:25.872Z,75.51
2023-05-03T12:38:56.485Z,74.53
2023-05-03T12:42:04.797Z,77.19
2023-05-03T12:44:17.071Z,74.82
2023-05-03T12:46:45.503Z,73.66
2023-05-03T12:49:15.310Z,74.03
2023-05-03T12:51:43.592Z,73.74
2023-05-03T12:54:12.217Z,73.34
2023-05-03T12:56:41.171Z,72.33
2023-05-03T13:02:40.775Z,74.03
2023-05-03T13:06:59.515Z,75.25
2023-05-03T13:09:37.756Z,75.00
2023-05-03T13:12:05.839Z,75.01
2023-05-03T13:14:33.477Z,73.90
2023-05-03T13:17:03.112Z,73.60
2023-05-03T13:19:30.406Z,74.05
2023-05-03T13:21:57.829Z,74.37
2023-05-03T13:24:25.013Z,72.93
2023-05-03T13:26:53.360Z,73.95
2023-05-03T13:29:23.079Z,73.50
2023-05-03T13:31:50.467Z,75.73
2023-05-03T13:34:17.701Z,78.14
2023-05-03T13:36:45.242Z,75.50
2023-05-03T13:39:12.886Z,73.55
2023-05-03T13:41:41.031Z,77.38
2023-05-03T13:44:09.573Z,76.38
2023-05-03T13:46:37.312Z,75.86
2023-05-03T13:49:07.701Z,74.70
2023-05-03T13:51:35.397Z,73.76
2023-05-03T13:54:03.229Z,74.31
2023-05-03T13:56:30.796Z,74.81
2023-05-03T13:58:58.233Z,71.31
2023-05-03T14:01:25.896Z,71.13
2023-05-03T14:03:53.821Z,72.34
2023-05-03T14:06:21.403Z,73.00
2023-05-03T14:08:48.627Z,72.96
2023-05-03T14:11:17.358Z,73.15
2023-05-03T14:13:56.453Z,72.18
2023-05-03T14:18:56.893Z,74.39
2023-05-03T14:21:24.911Z,76.76
2023-05-03T14:23:53.673Z,76.77
2023-05-03T14:26:23.359Z,76.84
2023-05-03T14:28:51.219Z,76.44
2023-05-03T14:31:18.520Z,74.65
2023-05-03T14:33:45.780Z,77.45
2023-05-03T14:36:13.356Z,77.56
2023-05-03T14:38:40.547Z,75.73
2023-05-03T14:41:07.773Z,77.64
2023-05-03T14:43:35.436Z,75.29
2023-05-03T14:46:02.737Z,76.10
2023-05-03T14:48:30.273Z,74.09
2023-05-03T14:50:57.839Z,74.10
2023-05-03T14:53:25.057Z,74.01
2023-05-03T14:55:53.856Z,75.78
2023-05-03T14:58:21.836Z,75.42
2023-05-03T15:00:49.250Z,75.44
2023-05-03T15:03:16.674Z,74.57
2023-05-03T15:05:48.302Z,76.03
2023-05-03T15:08:17.015Z,74.67
2023-05-03T15:10:44.816Z,75.40
2023-05-03T15:13:12.607Z,75.11
2023-05-03T15:15:40.542Z,75.12
2023-05-03T15:18:08.807Z,74.32
2023-05-03T15:20:36.524Z,74.53
2023-05-03T15:23:04.604Z,73.88
2023-05-03T15:25:32.096Z,72.37
2023-05-03T15:28:01.908Z,72.60
2023-05-03T15:30:32.797Z,74.70
2023-05-03T15:33:01.081Z,75.56
2023-05-03T15:35:28.427Z,76.71
2023-05-03T15:37:55.952Z,75.93
2023-05-03T15:40:26.089Z,75.80
2023-05-03T15:42:54.157Z,76.65
2023-05-03T15:45:23.452Z,76.40
2023-05-03T15:47:50.953Z,76.53
2023-05-03T15:50:18.402Z,76.24
2023-05-03T15:52:48.843Z,76.96
2023-05-03T15:55:17.388Z,77.71
2023-05-03T15:57:45.551Z,76.38
2023-05-03T16:00:16.080Z,77.23
2023-05-03T16:02:43.648Z,78.25
2023-05-03T16:05:11.698Z,77.59
2023-05-03T16:07:38.986Z,77.73
2023-05-03T16:10:07.675Z,76.89
2023-05-03T16:12:35.381Z,77.96
2023-05-03T16:15:03.108Z,78.61
2023-05-03T16:17:30.873Z,77.80
2023-05-03T16:19:58.119Z,75.90
2023-05-03T16:22:25.574Z,79.03
2023-05-03T16:24:55.888Z,76.44
2023-05-03T16:27:23.044Z,76.85
2023-05-03T16:29:51.571Z,78.03
2023-05-03T16:32:19.255Z,79.17
2023-05-03T16:34:47.203Z,83.18
2023-05-03T16:37:15.635Z,81.04
2023-05-03T16:39:43.081Z,79.45
2023-05-03T16:42:10.289Z,81.12
2023-05-03T16:44:37.622Z,81.66
2023-05-03T16:47:05.976Z,77.98
2023-05-03T16:49:34.282Z,81.04
2023-05-03T16:52:01.974Z,79.75
2023-05-03T16:54:29.448Z,78.30
2023-05-03T16:56:56.728Z,77.37
2023-05-03T16:59:24.543Z,77.57
2023-05-03T17:01:52.199Z,77.23
2023-05-03T17:04:19.413Z,78.11
2023-05-03T17:06:47.271Z,77.81
2023-05-03T17:09:15.099Z,76.22
2023-05-03T17:11:42.327Z,76.37
2023-05-03T17:14:09.655Z,76.06
2023-05-03T17:16:39.418Z,76.51
2023-05-03T17:19:08.192Z,76.14
2023-05-03T17:21:35.420Z,76.08
2023-05-03T17:24:02.940Z,75.36
2023-05-03T17:26:31.470Z,79.27
2023-05-03T17:28:58.816Z,77.29
2023-05-03T17:31:26.309Z,76.85
2023-05-03T17:33:53.613Z,75.59
2023-05-03T17:36:22.322Z,78.32
2023-05-03T17:38:50.173Z,80.58
2023-05-03T17:41:17.413Z,80.48
2023-05-03T17:43:45.104Z,81.04
2023-05-03T17:46:13.354Z,82.12
2023-05-03T17:48:43.584Z,84.53
2023-05-03T17:51:13.380Z,83.42
2023-05-03T17:53:41.656Z,83.91
2023-05-03T17:56:15.192Z,83.00
2023-05-03T17:58:42.763Z,82.27
2023-05-03T18:01:11.359Z,82.99
2023-05-03T18:03:39.507Z,85.35
2023-05-03T18:06:08.125Z,85.60
2023-05-03T18:08:35.948Z,83.21
2023-05-03T18:11:03.591Z,82.19
2023-05-03T18:13:32.329Z,84.59
2023-05-03T18:15:59.876Z,88.78
2023-05-03T18:18:27.391Z,85.08
2023-05-03T18:21:02.060Z,84.26
2023-05-03T18:23:30.406Z,85.31
2023-05-03T18:25:57.682Z,87.39
2023-05-03T18:28:25.820Z,83.12
2023-05-03T18:30:55.671Z,85.30
2023-05-03T18:33:23.456Z,90.23
2023-05-03T18:36:00.958Z,92.80
2023-05-03T18:38:28.717Z,89.64
2023-05-03T18:40:58.181Z,89.34
2023-05-03T18:43:25.599Z,87.24
2023-05-03T18:45:53.511Z,91.89
2023-05-03T18:48:23.227Z,88.07
2023-05-03T18:50:51.249Z,95.44
2023-05-03T18:53:19.077Z,94.42
2023-05-03T18:55:46.682Z,92.76
2023-05-03T18:58:15.871Z,95.25
2023-05-03T19:00:44.098Z,93.61
2023-05-03T19:03:12.412Z,94.01
2023-05-03T19:05:40.060Z,92.62
2023-05-03T19:08:08.278Z,96.33
2023-05-03T19:10:35.672Z,94.39
2023-05-03T19:13:04.514Z,92.45
2023-05-03T19:15:32.427Z,91.79
2023-05-03T19:18:00.312Z,93.09
2023-05-03T19:20:28.237Z,95.65
2023-05-03T19:22:56.562Z,98.52
2023-05-03T19:25:24.521Z,97.82
2023-05-03T19:27:52.503Z,99.35
2023-05-03T19:30:21.164Z,92.75
2023-05-03T19:32:48.477Z,93.10
2023-05-03T19:35:16.528Z,95.92
2023-05-03T19:37:46.897Z,97.96
2023-05-03T19:40:14.762Z,93.41
2023-05-03T19:42:43.109Z,91.82
2023-05-03T19:45:12.640Z,96.33
2023-05-03T19:47:40.680Z,94.11
2023-05-03T19:50:09.002Z,88.32
2023-05-03T19:52:38.278Z,92.66
2023-05-03T19:55:09.899Z,95.08
2023-05-03T19:57:37.994Z,94.29
2023-05-03T20:00:07.288Z,95.34
2023-05-03T20:02:36.680Z,89.01
2023-05-03T20:05:06.992Z,88.26
2023-05-03T20:07:34.623Z,89.68
2023-05-03T20:10:02.871Z,89.83
2023-05-03T20:12:31.053Z,93.16
2023-05-03T20:14:58.386Z,93.07
2023-05-03T20:17:26.378Z,96.90
2023-05-03T20:19:54.669Z,96.38
2023-05-03T20:22:22.036Z,97.31
2023-05-03T20:24:51.107Z,98.73
2023-05-03T20:27:19.828Z,99.19
2023-05-03T20:29:47.320Z,99.79
2023-05-03T20:32:15.073Z,98.28
2023-05-03T20:34:44.760Z,97.81
2023-05-03T20:37:12.037Z,97.77
2023-05-03T20:39:40.067Z,97.71
2023-05-03T20:42:07.684Z,96.47
2023-05-03T20:44:34.909Z,94.65
2023-05-03T20:47:02.123Z,94.37
2023-05-03T20:49:32.232Z,91.86
2023-05-03T20:51:59.418Z,90.99
2023-05-03T20:54:26.593Z,92.13
2023-05-03T20:56:54.077Z,93.48
2023-05-03T20:59:21.270Z,93.97
2023-05-03T21:01:48.560Z,95.09
2023-05-03T21:04:16.097Z,97.06
2023-05-03T21:06:45.015Z,95.60
2023-05-03T21:09:12.613Z,96.06
2023-05-03T21:11:42.270Z,94.45
2023-05-03T21:14:10.618Z,95.06
2023-05-03T21:16:38.120Z,93.25
2023-05-03T21:19:05.767Z,95.45
2023-05-03T21:21:33.138Z,95.10
2023-05-03T21:24:00.324Z,95.41
2023-05-03T21:26:29.105Z,94.60
2023-05-03T21:28:56.361Z,95.22
2023-05-03T21:31:23.541Z,95.27
2023-05-03T21:33:51.144Z,91.63
2023-05-03T21:36:18.360Z,95.75
2023-05-03T21:38:45.540Z,94.42
2023-05-03T21:41:13.683Z,86.47
2023-05-03T21:43:40.831Z,84.79
2023-05-03T21:46:08.144Z,83.31
2023-05-03T21:48:36.512Z,88.42
2023-05-03T21:51:04.178Z,95.33
2023-05-03T21:53:31.378Z,96.72
2023-05-03T21:55:58.979Z,92.62
2023-05-03T21:58:26.216Z,87.18
2023-05-03T22:00:53.612Z,95.09
2023-05-03T22:03:21.168Z,95.67
2023-05-03T22:05:50.477Z,93.89
2023-05-03T22:08:18.619Z,88.99
2023-05-03T22:10:46.470Z,92.51
2023-05-03T22:13:13.775Z,88.22
2023-05-03T22:15:41.061Z,93.84
2023-05-03T22:18:08.592Z,87.92
2023-05-03T22:20:35.820Z,87.99
2023-05-03T22:23:03.524Z,87.95
2023-05-03T22:25:32.412Z,87.32
2023-05-03T22:27:59.780Z,87.58
2023-05-03T22:30:27.421Z,87.83
2023-05-03T22:32:54.911Z,87.79
2023-05-03T22:35:22.348Z,88.60
2023-05-03T22:37:49.807Z,88.42
2023-05-03T22:40:17.307Z,88.03
2023-05-03T22:42:45.160Z,88.31
2023-05-03T22:45:12.347Z,87.84
2023-05-03T22:47:39.886Z,88.61
2023-05-03T22:50:07.666Z,89.03
2023-05-03T22:52:34.970Z,90.01
2023-05-03T22:55:03.488Z,90.88
2023-05-03T22:57:31.409Z,91.52
2023-05-03T22:59:59.419Z,91.05
2023-05-03T23:02:26.975Z,92.28
2023-05-03T23:04:54.917Z,91.88
2023-05-03T23:07:22.043Z,91.45
2023-05-03T23:09:49.496Z,91.32
2023-05-03T23:12:16.651Z,93.71
2023-05-03T23:14:46.050Z,91.17
2023-05-03T23:17:13.751Z,89.72
2023-05-03T23:19:40.890Z,90.13
2023-05-03T23:22:08.084Z,89.68
2023-05-03T23:24:35.563Z,90.62
2023-05-03T23:27:02.787Z,89.96
2023-05-03T23:29:30.557Z,95.22
2023-05-03T23:31:58.547Z,91.76
2023-05-03T23:34:26.165Z,90.40
2023-05-03T23:36:53.296Z,90.74
2023-05-03T23:39:21.630Z,90.58
2023-05-03T23:41:48.782Z,90.55
2023-05-03T23:44:15.933Z,90.41
2023-05-03T23:46:43.532Z,91.42
2023-05-03T23:49:11.086Z,90.38
2023-05-03T23:51:38.273Z,91.01
2023-05-03T23:54:05.791Z,89.17
2023-05-03T23:56:34.006Z,88.26
2023-05-03T23:59:01.745Z,88.98
